This is the latest recevied weather packets stored in our database for station/object WE0DX-1. If no packets are shown the sender has not sent any weather packets the latest 10 day(s).
| Time | Temp. | Humidity | Pressure | Rain* | Wind** | Luminosity | Snow |
|---|---|---|---|---|---|---|---|
| 1777753301 | 16.67° C | 32% | 1019.4 hPa | 0 mm | - | 613 W/m² | - |
| 1777752997 | 16.67° C | 32% | 1019.4 hPa | 0 mm | - | 607 W/m² | - |
| 1777752694 | 16.67° C | 31% | 1019.4 hPa | 0 mm | - | 630 W/m² | - |
| 1777752389 | 17.22° C | 32% | 1019.5 hPa | 0 mm | - | 613 W/m² | - |
| 1777752087 | 17.22° C | 32% | 1019.5 hPa | 0 mm | - | 619 W/m² | - |
| 1777751785 | 17.22° C | 34% | 1019.3 hPa | 0 mm | - | 626 W/m² | - |
| 1777751480 | 17.22° C | 32% | 1019.5 hPa | 0 mm | - | 642 W/m² | - |
| 1777751178 | 16.67° C | 32% | 1019.5 hPa | 0 mm | - | 626 W/m² | - |
| 1777750874 | 16.67° C | 31% | 1019.6 hPa | 0 mm | - | 642 W/m² | - |
| 1777750571 | 16.11° C | 33% | 1019.9 hPa | 0 mm | - | 626 W/m² | - |
| 1777750268 | 16.67° C | 34% | 1019.5 hPa | 0 mm | - | 595 W/m² | - |
| 1777749963 | 16.11° C | 33% | 1019.9 hPa | 0 mm | - | 595 W/m² | - |
| 1777749661 | 16.67° C | 32% | 1020.1 hPa | 0 mm | - | 642 W/m² | - |
| 1777749358 | 16.67° C | 33% | 1019.9 hPa | 0 mm | - | 653 W/m² | - |
| 1777749055 | 16.11° C | 32% | 1020 hPa | 0 mm | - | 668 W/m² | - |
| 1777748753 | 16.11° C | 32% | 1020.2 hPa | 0 mm | - | 687 W/m² | - |
| 1777748450 | 16.11° C | 33% | 1020 hPa | 0 mm | - | 680 W/m² | - |
| 1777748144 | 16.11° C | 35% | 1020.3 hPa | 0 mm | - | 684 W/m² | - |
| 1777747842 | 16.11° C | 31% | 1020.4 hPa | 0 mm | - | 743 W/m² | - |
| 1777747538 | 15.56° C | 31% | 1020.4 hPa | 0 mm | - | 747 W/m² | - |
| 1777747234 | 15.56° C | 32% | 1020.3 hPa | 0 mm | - | 735 W/m² | - |
| 1777746930 | 15.56° C | 30% | 1020.5 hPa | 0 mm | - | 716 W/m² | - |
| 1777746626 | 15.56° C | 31% | 1020.6 hPa | 0 mm | - | 714 W/m² | - |
| 1777746321 | 15.56° C | 32% | 1020.5 hPa | 0 mm | - | 724 W/m² | - |
| 1777746018 | 15.56° C | 34% | 1020.6 hPa | 0 mm | - | 728 W/m² | - |
* Rain latest hour (hover to see other rain measurements)
** Current wind speed in m/s (hover to see current wind gust speed)